createdAt,value
2018-05-14T00:01:42.840Z,99591.60
2018-05-14T00:04:12.455Z,99595.73
2018-05-14T00:06:42.088Z,99599.09
2018-05-14T00:09:11.696Z,99598.19
2018-05-14T00:11:41.371Z,99603.12
2018-05-14T00:14:10.990Z,99611.73
2018-05-14T00:16:40.599Z,99607.95
2018-05-14T00:19:10.249Z,99606.58
2018-05-14T00:21:39.868Z,99607.39
2018-05-14T00:24:09.529Z,99615.98
2018-05-14T00:26:39.152Z,99622.03
2018-05-14T00:29:08.781Z,99623.23
2018-05-14T00:31:38.394Z,99623.90
2018-05-14T00:34:08.017Z,99624.64
2018-05-14T00:36:37.688Z,99617.73
2018-05-14T00:39:07.316Z,99625.63
2018-05-14T00:41:36.971Z,99622.59
2018-05-14T00:44:06.272Z,99622.42
2018-05-14T00:46:35.979Z,99621.19
2018-05-14T00:49:05.647Z,99620.19
2018-05-14T00:51:35.297Z,99623.12
2018-05-14T00:54:04.935Z,99626.08
2018-05-14T00:56:34.567Z,99625.75
2018-05-14T00:59:04.198Z,99622.75
2018-05-14T01:01:33.567Z,99632.98
2018-05-14T01:04:03.185Z,99637.25
2018-05-14T01:06:32.832Z,99632.53
2018-05-14T01:09:02.451Z,99650.99
2018-05-14T01:11:31.797Z,99641.66
2018-05-14T01:14:07.099Z,99644.20
2018-05-14T01:16:42.848Z,99649.39
2018-05-14T01:19:12.550Z,99649.91
2018-05-14T01:21:42.179Z,99658.66
2018-05-14T01:24:11.811Z,99652.39
2018-05-14T01:26:41.541Z,99652.91
2018-05-14T01:29:11.163Z,99653.53
2018-05-14T01:31:40.847Z,99654.95
2018-05-14T01:34:10.485Z,99660.70
2018-05-14T01:36:40.106Z,99661.84
2018-05-14T01:39:09.710Z,99663.25
2018-05-14T01:41:39.336Z,99663.70
2018-05-14T01:44:08.989Z,99665.87
2018-05-14T01:46:38.610Z,99660.33
2018-05-14T01:49:08.231Z,99656.73
2018-05-14T01:51:37.864Z,99661.43
2018-05-14T01:54:07.280Z,99662.62
2018-05-14T01:56:36.947Z,99655.17
2018-05-14T01:59:06.238Z,99653.55
2018-05-14T02:01:35.858Z,99657.61
2018-05-14T02:04:05.480Z,99649.91
2018-05-14T02:06:35.101Z,99653.86
2018-05-14T02:09:03.951Z,99647.69
2018-05-14T02:11:33.566Z,99650.85
2018-05-14T02:14:03.231Z,99652.20
2018-05-14T02:16:32.859Z,99647.34
2018-05-14T02:19:02.480Z,99645.81
2018-05-14T02:21:32.124Z,99646.97
2018-05-14T02:24:01.734Z,99648.84
2018-05-14T02:26:31.363Z,99649.22
2018-05-14T02:29:01.031Z,99658.23
2018-05-14T02:31:30.660Z,99672.31
2018-05-14T02:34:00.292Z,99663.39
2018-05-14T02:36:29.922Z,99662.27
2018-05-14T02:38:59.555Z,99665.66
2018-05-14T02:41:29.216Z,99663.72
2018-05-14T02:43:58.844Z,99664.43
2018-05-14T02:46:28.469Z,99663.42
2018-05-14T02:48:58.143Z,99653.73
2018-05-14T02:51:27.768Z,99657.67
2018-05-14T02:53:57.423Z,99654.25
2018-05-14T02:56:27.088Z,99653.27
2018-05-14T02:58:56.719Z,99659.58
2018-05-14T03:01:26.373Z,99675.84
2018-05-14T03:03:55.995Z,99670.95
2018-05-14T03:06:25.670Z,99682.30
2018-05-14T03:08:55.015Z,99677.64
2018-05-14T03:11:24.645Z,99687.63
2018-05-14T03:13:54.258Z,99700.62
2018-05-14T03:16:23.894Z,99694.63
2018-05-14T03:18:53.558Z,99697.13
2018-05-14T03:21:23.179Z,99707.84
2018-05-14T03:23:52.816Z,99704.62
2018-05-14T03:26:22.205Z,99708.08
2018-05-14T03:28:51.834Z,99702.49
2018-05-14T03:31:21.495Z,99707.38
2018-05-14T03:33:51.126Z,99710.07
2018-05-14T03:36:20.761Z,99713.41
2018-05-14T03:38:50.383Z,99711.89
2018-05-14T03:41:20.022Z,99713.77
2018-05-14T03:43:49.698Z,99708.80
2018-05-14T03:46:19.317Z,99704.20
2018-05-14T03:48:48.930Z,99707.53
2018-05-14T03:51:18.554Z,99709.16
2018-05-14T03:53:48.174Z,99721.91
2018-05-14T03:56:17.844Z,99717.51
2018-05-14T03:58:58.702Z,99717.92
2018-05-14T04:01:39.285Z,99724.16
2018-05-14T04:04:19.886Z,99721.30
2018-05-14T04:06:49.280Z,99724.44
2018-05-14T04:09:18.886Z,99733.56
2018-05-14T04:11:50.189Z,99740.26
2018-05-14T04:14:19.851Z,99742.13
2018-05-14T04:16:49.476Z,99740.95
2018-05-14T04:19:19.109Z,99742.63
2018-05-14T04:21:48.756Z,99741.56
2018-05-14T04:24:18.433Z,99750.04
2018-05-14T04:26:48.104Z,99749.63
2018-05-14T04:29:17.720Z,99749.26
2018-05-14T04:31:47.333Z,99754.45
2018-05-14T04:34:16.957Z,99759.96
2018-05-14T04:36:46.633Z,99749.83
2018-05-14T04:39:16.257Z,99752.98
2018-05-14T04:41:45.883Z,99760.39
2018-05-14T04:44:15.527Z,99766.13
2018-05-14T04:46:45.143Z,99771.20
2018-05-14T04:49:14.817Z,99775.86
2018-05-14T04:51:44.456Z,99777.33
2018-05-14T04:54:14.108Z,99777.17
2018-05-14T04:56:43.744Z,99771.22
2018-05-14T04:59:13.376Z,99779.95
2018-05-14T05:01:43.150Z,99769.20
2018-05-14T05:04:12.772Z,99769.84
2018-05-14T05:06:42.435Z,99770.64
2018-05-14T05:09:12.068Z,99768.38
2018-05-14T05:11:41.701Z,99776.84
2018-05-14T05:14:11.083Z,99779.27
2018-05-14T05:16:40.709Z,99778.74
2018-05-14T05:19:10.360Z,99776.48
2018-05-14T05:21:39.976Z,99781.59
2018-05-14T05:24:09.604Z,99796.28
2018-05-14T05:26:39.266Z,99797.08
2018-05-14T05:29:08.874Z,99794.57
2018-05-14T05:31:38.494Z,99802.16
2018-05-14T05:34:08.111Z,99815.45
2018-05-14T05:36:37.730Z,99817.41
2018-05-14T05:39:07.384Z,99815.29
2018-05-14T05:41:37.020Z,99817.05
2018-05-14T05:44:06.661Z,99818.59
2018-05-14T05:46:36.287Z,99804.52
2018-05-14T05:49:05.913Z,99805.67
2018-05-14T05:51:35.584Z,99805.41
2018-05-14T05:54:05.219Z,99809.80
2018-05-14T05:56:34.858Z,99812.73
2018-05-14T05:59:04.537Z,99821.23
2018-05-14T06:01:34.163Z,99825.44
2018-05-14T06:04:03.836Z,99825.91
2018-05-14T06:06:33.481Z,99819.52
2018-05-14T06:09:03.086Z,99811.01
2018-05-14T06:11:32.426Z,99821.30
2018-05-14T06:14:02.047Z,99826.83
2018-05-14T06:16:31.697Z,99830.83
2018-05-14T06:19:01.322Z,99829.95
2018-05-14T06:21:31.040Z,99834.73
2018-05-14T06:24:00.676Z,99824.22
2018-05-14T06:26:30.327Z,99842.16
2018-05-14T06:28:59.987Z,99848.08
2018-05-14T06:31:29.600Z,99835.91
2018-05-14T06:33:59.212Z,99836.02
2018-05-14T06:36:28.606Z,99843.67
2018-05-14T06:38:58.245Z,99832.87
2018-05-14T06:41:27.916Z,99834.02
2018-05-14T06:43:58.119Z,99830.53
2018-05-14T06:46:28.398Z,99823.00
2018-05-14T06:48:58.293Z,99827.95
2018-05-14T06:51:28.552Z,99840.63
2018-05-14T06:53:58.509Z,99830.34
2018-05-14T06:56:28.207Z,99837.88
2018-05-14T06:58:57.874Z,99821.77
2018-05-14T07:01:28.080Z,99846.75
2018-05-14T07:03:58.336Z,99837.09
2018-05-14T07:06:28.526Z,99849.18
2018-05-14T07:08:58.748Z,99832.20
2018-05-14T07:11:29.013Z,99836.21
2018-05-14T07:13:59.416Z,99836.66
2018-05-14T07:16:29.666Z,99841.36
2018-05-14T07:18:59.631Z,99834.27
2018-05-14T07:21:29.860Z,99837.64
2018-05-14T07:24:00.068Z,99828.78
2018-05-14T07:26:30.435Z,99834.42
2018-05-14T07:29:00.777Z,99820.09
2018-05-14T07:31:30.983Z,99825.36
2018-05-14T07:34:01.262Z,99854.23
2018-05-14T07:36:31.467Z,99834.73
2018-05-14T07:39:01.143Z,99830.20
2018-05-14T07:41:31.082Z,99845.08
2018-05-14T07:44:01.328Z,99830.12
2018-05-14T07:46:31.535Z,99834.64
2018-05-14T07:49:01.760Z,99841.90
2018-05-14T07:51:31.982Z,99861.44
2018-05-14T07:54:02.190Z,99841.67
2018-05-14T07:56:31.873Z,99843.41
2018-05-14T07:59:01.496Z,99836.45
2018-05-14T08:01:31.750Z,99832.19
2018-05-14T08:04:01.958Z,99849.48
2018-05-14T08:06:32.147Z,99838.34
2018-05-14T08:09:02.386Z,99834.59
2018-05-14T08:11:32.380Z,99832.13
2018-05-14T08:14:02.594Z,99834.76
2018-05-14T08:16:32.455Z,99841.66
2018-05-14T08:19:02.697Z,99847.05
2018-05-14T08:21:32.947Z,99841.44
2018-05-14T08:24:02.566Z,99852.75
2018-05-14T08:26:32.178Z,99854.27
2018-05-14T08:29:02.427Z,99851.09
2018-05-14T08:31:32.078Z,99844.83
2018-05-14T08:34:02.323Z,99842.33
2018-05-14T08:36:31.944Z,99838.59
2018-05-14T08:39:03.150Z,99856.45
2018-05-14T08:41:32.790Z,99836.17
2018-05-14T08:44:02.515Z,99845.11
2018-05-14T08:46:32.126Z,99838.12
2018-05-14T08:49:01.759Z,99831.14
2018-05-14T08:51:32.010Z,99835.79
2018-05-14T08:54:01.654Z,99849.26
2018-05-14T08:56:31.320Z,99817.42
2018-05-14T08:59:01.552Z,99831.26
2018-05-14T09:01:31.773Z,99829.02
2018-05-14T09:04:01.448Z,99826.30
2018-05-14T09:06:31.679Z,99822.47
2018-05-14T09:09:01.320Z,99831.45
2018-05-14T09:11:30.655Z,99817.86
2018-05-14T09:14:01.035Z,99830.81
2018-05-14T09:16:31.266Z,99824.14
2018-05-14T09:19:00.969Z,99825.85
2018-05-14T09:21:30.612Z,99824.19
2018-05-14T09:24:00.253Z,99824.08
2018-05-14T09:26:29.900Z,99823.49
2018-05-14T09:28:59.584Z,99817.94
2018-05-14T09:31:29.206Z,99828.30
2018-05-14T09:33:58.827Z,99813.93
2018-05-14T09:36:28.453Z,99813.38
2018-05-14T09:38:58.086Z,99810.11
2018-05-14T09:41:27.742Z,99827.95
2018-05-14T09:43:57.384Z,99811.81
2018-05-14T09:46:27.026Z,99812.38
2018-05-14T09:48:56.700Z,99794.34
2018-05-14T09:51:26.330Z,99799.86
2018-05-14T09:53:55.982Z,99786.06
2018-05-14T09:56:25.819Z,99783.63
2018-05-14T09:58:55.472Z,99788.98
2018-05-14T10:01:25.167Z,99791.94
2018-05-14T10:03:54.790Z,99795.66
2018-05-14T10:06:24.413Z,99792.28
2018-05-14T10:08:54.040Z,99794.49
2018-05-14T10:11:23.667Z,99784.05
2018-05-14T10:13:53.330Z,99785.47
2018-05-14T10:16:22.941Z,99782.26
2018-05-14T10:18:52.243Z,99788.03
2018-05-14T10:21:21.874Z,99779.06
2018-05-14T10:23:51.602Z,99781.33
2018-05-14T10:26:21.262Z,99779.43
2018-05-14T10:28:50.879Z,99791.94
2018-05-14T10:31:20.504Z,99782.97
2018-05-14T10:33:50.127Z,99784.44
2018-05-14T10:36:19.738Z,99782.19
2018-05-14T10:38:49.404Z,99796.08
2018-05-14T10:41:19.029Z,99793.00
2018-05-14T10:43:48.659Z,99787.17
2018-05-14T10:46:18.373Z,99801.52
2018-05-14T10:48:48.005Z,99789.59
2018-05-14T10:51:17.673Z,99788.14
2018-05-14T10:53:47.396Z,99791.52
2018-05-14T10:56:17.058Z,99792.63
2018-05-14T10:58:46.781Z,99782.63
2018-05-14T11:01:16.588Z,99789.34
2018-05-14T11:03:46.262Z,99785.44
2018-05-14T11:06:15.887Z,99783.80
2018-05-14T11:08:45.537Z,99788.81
2018-05-14T11:11:15.161Z,99793.55
2018-05-14T11:13:44.773Z,99787.19
2018-05-14T11:16:14.430Z,99792.73
2018-05-14T11:18:44.127Z,99791.42
2018-05-14T11:21:13.997Z,99791.27
2018-05-14T11:23:43.628Z,99787.41
2018-05-14T11:26:13.253Z,99793.56
2018-05-14T11:28:42.888Z,99789.02
2018-05-14T11:31:12.545Z,99790.98
2018-05-14T11:33:42.210Z,99804.38
2018-05-14T11:36:11.822Z,99804.55
2018-05-14T11:38:41.443Z,99814.45
2018-05-14T11:41:11.062Z,99809.71
2018-05-14T11:43:40.680Z,99803.55
2018-05-14T11:46:10.334Z,99813.39
2018-05-14T11:48:40.016Z,99795.56
2018-05-14T11:51:09.682Z,99800.33
2018-05-14T11:53:39.304Z,99789.39
2018-05-14T11:56:08.990Z,99796.63
2018-05-14T11:58:38.612Z,99793.90
2018-05-14T12:01:08.264Z,99795.58
2018-05-14T12:03:37.724Z,99794.94
2018-05-14T12:06:07.348Z,99792.28
2018-05-14T12:08:36.727Z,99795.52
2018-05-14T12:11:06.357Z,99797.40
2018-05-14T12:13:35.984Z,99797.03
2018-05-14T12:16:05.743Z,99787.87
2018-05-14T12:18:35.506Z,99787.84
2018-05-14T12:21:05.137Z,99789.56
2018-05-14T12:23:34.762Z,99787.70
2018-05-14T12:26:04.374Z,99788.59
2018-05-14T12:28:34.048Z,99789.00
2018-05-14T12:31:03.663Z,99778.42
2018-05-14T12:33:34.008Z,99778.64
2018-05-14T12:36:03.394Z,99775.19
2018-05-14T12:38:32.725Z,99766.51
2018-05-14T12:41:02.167Z,99766.70
2018-05-14T12:43:31.804Z,99774.45
2018-05-14T12:46:01.486Z,99767.89
2018-05-14T12:48:31.304Z,99762.00
2018-05-14T12:51:00.923Z,99768.83
2018-05-14T12:53:30.611Z,99764.23
2018-05-14T12:56:00.247Z,99762.00
2018-05-14T12:58:29.863Z,99756.82
2018-05-14T13:00:59.552Z,99748.47
2018-05-14T13:03:29.226Z,99755.63
2018-05-14T13:05:58.384Z,99756.21
2018-05-14T13:08:28.016Z,99746.67
2018-05-14T13:10:57.659Z,99752.69
2018-05-14T13:13:27.283Z,99746.45
2018-05-14T13:15:56.914Z,99755.61
2018-05-14T13:18:26.598Z,99755.33
2018-05-14T13:20:56.226Z,99755.36
2018-05-14T13:23:26.169Z,99745.05
2018-05-14T13:25:55.796Z,99744.67
2018-05-14T13:28:25.407Z,99733.59
2018-05-14T13:30:55.090Z,99730.61
2018-05-14T13:33:25.526Z,99733.32
2018-05-14T13:35:55.222Z,99733.80
2018-05-14T13:38:24.856Z,99734.18
2018-05-14T13:40:54.476Z,99731.89
2018-05-14T13:43:24.152Z,99729.40
2018-05-14T13:45:53.779Z,99723.06
2018-05-14T13:48:23.433Z,99721.39
2018-05-14T13:50:53.135Z,99734.69
2018-05-14T13:53:22.907Z,99732.56
2018-05-14T13:55:52.566Z,99736.92
2018-05-14T13:58:22.180Z,99739.90
2018-05-14T14:00:52.688Z,99752.97
2018-05-14T14:03:22.317Z,99740.88
2018-05-14T14:05:51.956Z,99727.09
2018-05-14T14:08:21.633Z,99718.93
2018-05-14T14:10:51.266Z,99721.42
2018-05-14T14:13:20.902Z,99733.13
2018-05-14T14:15:51.127Z,99727.78
2018-05-14T14:18:20.743Z,99724.06
2018-05-14T14:20:50.400Z,99723.27
2018-05-14T14:23:20.203Z,99748.66
2018-05-14T14:25:49.913Z,99723.94
2018-05-14T14:28:20.349Z,99737.30
2018-05-14T14:30:49.958Z,99724.30
2018-05-14T14:33:19.648Z,99727.50
2018-05-14T14:35:49.304Z,99721.74
2018-05-14T14:38:19.159Z,99719.70
2018-05-14T14:40:48.810Z,99725.16
2018-05-14T14:43:19.303Z,99722.59
2018-05-14T14:45:48.923Z,99712.00
2018-05-14T14:48:18.577Z,99714.95
2018-05-14T14:50:49.119Z,99717.31
2018-05-14T14:53:18.731Z,99711.70
2018-05-14T14:55:48.346Z,99719.31
2018-05-14T14:58:18.054Z,99718.00
2018-05-14T15:00:47.821Z,99715.39
2018-05-14T15:03:17.489Z,99714.73
2018-05-14T15:05:47.117Z,99728.98
2018-05-14T15:08:16.744Z,99716.45
2018-05-14T15:10:46.404Z,99713.78
2018-05-14T15:13:16.041Z,99710.48
2018-05-14T15:15:45.736Z,99709.49
2018-05-14T15:18:15.359Z,99718.47
2018-05-14T15:20:45.023Z,99712.25
2018-05-14T15:23:14.643Z,99702.33
2018-05-14T15:25:44.273Z,99714.98
2018-05-14T15:28:13.933Z,99705.56
2018-05-14T15:30:43.580Z,99725.53
2018-05-14T15:33:13.238Z,99715.27
2018-05-14T15:35:42.856Z,99723.66
2018-05-14T15:38:12.480Z,99711.21
2018-05-14T15:40:42.156Z,99722.91
2018-05-14T15:43:11.796Z,99719.29
2018-05-14T15:45:41.457Z,99713.53
2018-05-14T15:48:11.094Z,99719.03
2018-05-14T15:50:40.731Z,99724.35
2018-05-14T15:53:10.404Z,99716.08
2018-05-14T15:55:40.025Z,99719.03
2018-05-14T15:58:09.651Z,99707.15
2018-05-14T16:00:39.283Z,99717.25
2018-05-14T16:03:08.908Z,99721.22
2018-05-14T16:05:38.574Z,99717.06
2018-05-14T16:08:08.249Z,99725.47
2018-05-14T16:10:38.086Z,99720.85
2018-05-14T16:13:07.733Z,99720.16
2018-05-14T16:15:37.361Z,99714.86
2018-05-14T16:18:07.011Z,99711.70
2018-05-14T16:20:36.648Z,99712.89
2018-05-14T16:23:06.311Z,99703.23
2018-05-14T16:25:35.948Z,99705.67
2018-05-14T16:28:05.596Z,99702.53
2018-05-14T16:30:35.216Z,99698.44
2018-05-14T16:33:04.841Z,99699.25
2018-05-14T16:35:34.511Z,99703.05
2018-05-14T16:38:03.905Z,99702.80
2018-05-14T16:40:33.524Z,99697.23
2018-05-14T16:43:03.163Z,99690.75
2018-05-14T16:45:32.787Z,99692.79
2018-05-14T16:48:02.488Z,99699.59
2018-05-14T16:50:32.111Z,99699.89
2018-05-14T16:53:01.747Z,99699.89
2018-05-14T16:55:31.365Z,99699.67
2018-05-14T16:58:01.029Z,99699.55
2018-05-14T17:00:30.879Z,99701.59
2018-05-14T17:03:00.507Z,99696.85
2018-05-14T17:05:30.119Z,99700.25
2018-05-14T17:07:59.964Z,99698.33
2018-05-14T17:10:29.622Z,99694.03
2018-05-14T17:12:59.486Z,99690.91
2018-05-14T17:15:29.102Z,99706.39
2018-05-14T17:17:58.744Z,99702.05
2018-05-14T17:20:28.368Z,99696.09
2018-05-14T17:22:58.021Z,99703.41
2018-05-14T17:25:27.696Z,99696.91
2018-05-14T17:27:57.322Z,99700.84
2018-05-14T17:30:26.963Z,99699.07
2018-05-14T17:32:56.578Z,99706.52
2018-05-14T17:35:25.870Z,99702.20
2018-05-14T17:37:55.535Z,99708.58
2018-05-14T17:40:25.172Z,99708.58
2018-05-14T17:42:54.789Z,99708.58
2018-05-14T17:45:24.405Z,99706.25
2018-05-14T17:47:54.037Z,99706.51
2018-05-14T17:50:23.687Z,99710.56
2018-05-14T17:52:53.626Z,99720.03
2018-05-14T17:55:23.411Z,99721.36
2018-05-14T17:57:53.084Z,99719.82
2018-05-14T18:00:22.719Z,99722.36
2018-05-14T18:02:52.375Z,99723.82
2018-05-14T18:05:22.093Z,99724.42
2018-05-14T18:07:51.870Z,99723.70
2018-05-14T18:10:21.486Z,99726.78
2018-05-14T18:12:51.103Z,99717.00
2018-05-14T18:15:20.766Z,99727.36
2018-05-14T18:17:50.434Z,99725.27
2018-05-14T18:20:26.214Z,99728.06
2018-05-14T18:22:55.841Z,99724.45
2018-05-14T18:25:30.760Z,99737.50
2018-05-14T18:28:11.876Z,99731.22
2018-05-14T18:30:41.307Z,99736.55
2018-05-14T18:33:11.854Z,99744.65
2018-05-14T18:35:46.547Z,99746.69
2018-05-14T18:38:16.173Z,99747.39
2018-05-14T18:40:45.822Z,99745.07
2018-05-14T18:43:15.451Z,99753.65
2018-05-14T18:45:45.085Z,99757.73
2018-05-14T18:48:14.752Z,99765.59
2018-05-14T18:50:44.373Z,99762.30
2018-05-14T18:53:14.016Z,99769.95
2018-05-14T18:55:43.634Z,99768.12
2018-05-14T18:58:13.264Z,99769.67
2018-05-14T19:00:42.688Z,99772.20
2018-05-14T19:03:12.319Z,99775.00
2018-05-14T19:05:41.940Z,99768.83
2018-05-14T19:08:11.560Z,99774.61
2018-05-14T19:10:46.663Z,99773.88
2018-05-14T19:13:16.303Z,99776.91
2018-05-14T19:15:51.183Z,99768.99
2018-05-14T19:18:20.825Z,99779.58
2018-05-14T19:20:50.445Z,99775.63
2018-05-14T19:23:25.458Z,99779.14
2018-05-14T19:25:55.083Z,99775.09
2018-05-14T19:28:30.164Z,99770.58
2018-05-14T19:30:59.792Z,99768.08
2018-05-14T19:33:34.863Z,99775.64
2018-05-14T19:36:04.372Z,99768.68
2018-05-14T19:38:34.212Z,99763.83
2018-05-14T19:41:03.838Z,99766.05
2018-05-14T19:43:33.239Z,99765.52
2018-05-14T19:46:02.855Z,99764.83
2018-05-14T19:48:32.471Z,99768.33
2018-05-14T19:51:01.935Z,99767.39
2018-05-14T19:53:31.743Z,99778.08
2018-05-14T19:56:01.402Z,99779.48
2018-05-14T19:58:31.023Z,99773.44
2018-05-14T20:01:00.789Z,99773.03
2018-05-14T20:03:30.639Z,99769.12
2018-05-14T20:06:00.460Z,99771.06
2018-05-14T20:08:30.100Z,99771.05
2018-05-14T20:10:59.724Z,99766.06
2018-05-14T20:13:29.383Z,99772.55
2018-05-14T20:15:59.061Z,99775.34
2018-05-14T20:18:28.682Z,99776.05
2018-05-14T20:20:58.312Z,99775.55
2018-05-14T20:23:28.000Z,99775.65
2018-05-14T20:25:57.628Z,99774.72
2018-05-14T20:28:27.296Z,99769.87
2018-05-14T20:30:56.921Z,99774.77
2018-05-14T20:33:26.552Z,99769.38
2018-05-14T20:35:55.915Z,99768.39
2018-05-14T20:38:25.532Z,99768.69
2018-05-14T20:40:55.212Z,99766.61
2018-05-14T20:43:24.839Z,99764.70
2018-05-14T20:45:54.507Z,99772.20
2018-05-14T20:48:24.122Z,99769.67
2018-05-14T20:50:53.730Z,99772.25
2018-05-14T20:53:23.420Z,99766.83
2018-05-14T20:55:53.035Z,99774.36
2018-05-14T20:58:22.671Z,99771.22
2018-05-14T21:00:52.288Z,99781.27
2018-05-14T21:03:21.918Z,99775.44
2018-05-14T21:05:51.579Z,99773.89
2018-05-14T21:08:21.210Z,99774.33
2018-05-14T21:10:50.872Z,99772.63
2018-05-14T21:13:20.519Z,99775.52
2018-05-14T21:15:50.134Z,99775.05
2018-05-14T21:18:19.827Z,99777.61
2018-05-14T21:20:49.454Z,99775.73
2018-05-14T21:23:19.079Z,99778.59
2018-05-14T21:25:48.712Z,99774.98
2018-05-14T21:28:18.334Z,99770.36
2018-05-14T21:30:48.006Z,99774.21
2018-05-14T21:33:17.348Z,99772.84
2018-05-14T21:35:46.966Z,99771.84
2018-05-14T21:38:16.606Z,99768.09
2018-05-14T21:40:46.238Z,99761.98
2018-05-14T21:43:15.894Z,99763.59
2018-05-14T21:45:45.515Z,99756.87
2018-05-14T21:48:15.136Z,99754.02
2018-05-14T21:50:44.754Z,99754.17
2018-05-14T21:53:14.121Z,99755.98
2018-05-14T21:55:43.780Z,99762.45
2018-05-14T21:58:13.405Z,99754.34
2018-05-14T22:00:42.752Z,99750.88
2018-05-14T22:03:12.100Z,99750.61
2018-05-14T22:05:51.070Z,99748.07
2018-05-14T22:08:20.404Z,99749.03
2018-05-14T22:10:50.016Z,99747.81
2018-05-14T22:13:19.414Z,99748.50
2018-05-14T22:15:49.028Z,99749.16
2018-05-14T22:18:18.393Z,99746.09
2018-05-14T22:20:48.057Z,99741.36
2018-05-14T22:23:17.669Z,99749.79
2018-05-14T22:25:47.329Z,99742.85
2018-05-14T22:28:16.695Z,99741.06
2018-05-14T22:30:46.319Z,99729.95
2018-05-14T22:33:15.927Z,99735.98
2018-05-14T22:35:45.288Z,99731.86
2018-05-14T22:38:14.970Z,99731.34
2018-05-14T22:40:44.586Z,99738.36
2018-05-14T22:43:14.202Z,99736.88
2018-05-14T22:45:43.828Z,99736.78
2018-05-14T22:48:13.462Z,99734.86
2018-05-14T22:50:43.117Z,99732.59
2018-05-14T22:53:12.739Z,99735.27
2018-05-14T22:55:42.355Z,99737.49
2018-05-14T22:58:11.974Z,99732.05
2018-05-14T23:00:41.590Z,99738.62
2018-05-14T23:03:11.058Z,99737.95
2018-05-14T23:05:40.671Z,99733.69
2018-05-14T23:08:10.294Z,99736.98
2018-05-14T23:10:40.151Z,99730.09
2018-05-14T23:13:09.768Z,99737.59
2018-05-14T23:15:39.433Z,99734.87
2018-05-14T23:18:09.067Z,99734.21
2018-05-14T23:20:38.688Z,99725.48
2018-05-14T23:23:08.310Z,99721.92
2018-05-14T23:25:37.936Z,99726.47
2018-05-14T23:28:07.585Z,99726.30
2018-05-14T23:30:37.196Z,99723.17
2018-05-14T23:33:06.488Z,99725.83
2018-05-14T23:35:36.114Z,99727.06
2018-05-14T23:38:05.738Z,99724.63
2018-05-14T23:40:35.412Z,99721.30
2018-05-14T23:43:05.030Z,99715.25
2018-05-14T23:45:34.643Z,99720.38
2018-05-14T23:48:04.271Z,99717.91
2018-05-14T23:50:33.878Z,99707.38
2018-05-14T23:53:03.539Z,99714.31
2018-05-14T23:55:33.166Z,99706.73
2018-05-14T23:58:02.829Z,99706.11
